Froid, Montana
Current Conditions -  °F | °C
As of 7:52 AM on Thursday 18 Dec 2014 (Local Time) from KISN Reporting Station
Overcast Overcast  
Wind Chill: 15°   Ceiling: 1000
Heat Index: 21°   Visibility: 10mi
Dew Point: 17°   Wind: 5mph
Humidity: 85%   Direction: 160°SSE
Pressure: 30"   Gusts: NA
Location:  48.33°N, 104.5°W
Report Text: KISN 181452Z AUTO 16004KT 10SM OVC010 M06/M08 A3000 RMK AO2 CIG 008V011 SLP194 T10611083 55000
Loading
Personal Weather Stations






























Interactive Weather Map New forecast layout! Learn more

10-Day Weather Forecast

Advertisements
Track Severe Weather on mobile